Flin Flon, Canada
Current Conditions -  °F | °C
As of 6:00 PM on Friday 28 Nov 2014 (Local Time) from CYFO Reporting Station
Light Snow Light Snow  
Wind Chill: -22°   Ceiling: 4000
Heat Index: -8°   Visibility: 2.5mi
Dew Point: -13°   Wind: 7mph
Humidity: 77%   Direction: 50°NE
Pressure: 29.91"   Gusts: NA
Location:  54.77°N, 101.88°W
Report Text: CYFO 290000Z 05006KT 010V100 2 1/2SM -SN DRSN OVC040 M22/M25 A2991 RMK SC8 LAST OBS/NEXT 291200UTC SNW COV/MUCH LOOSE SLP169
Loading
Personal Weather Stations






























Interactive Weather Map New forecast layout! Learn more

10-Day Weather Forecast

Advertisements
Track Severe Weather on mobile